sensor_id;sensor_type;location;lat;lon;timestamp;temperature;humidity
20337;DHT22;10326;53.660;10.200;2022-12-05T00:01:16;8.20;80.20
20337;DHT22;10326;53.660;10.200;2022-12-05T00:03:44;8.30;80.40
20337;DHT22;10326;53.660;10.200;2022-12-05T00:06:12;8.20;80.20
20337;DHT22;10326;53.660;10.200;2022-12-05T00:08:39;8.30;80.40
20337;DHT22;10326;53.660;10.200;2022-12-05T00:11:10;8.30;80.50
20337;DHT22;10326;53.660;10.200;2022-12-05T00:13:38;8.30;80.50
20337;DHT22;10326;53.660;10.200;2022-12-05T00:16:08;8.30;80.50
20337;DHT22;10326;53.660;10.200;2022-12-05T00:18:37;8.30;80.50
20337;DHT22;10326;53.660;10.200;2022-12-05T00:21:05;8.20;80.50
20337;DHT22;10326;53.660;10.200;2022-12-05T00:23:33;8.30;80.50
20337;DHT22;10326;53.660;10.200;2022-12-05T00:26:02;8.20;80.50
20337;DHT22;10326;53.660;10.200;2022-12-05T00:28:30;8.30;80.60
20337;DHT22;10326;53.660;10.200;2022-12-05T00:31:01;8.30;80.60
20337;DHT22;10326;53.660;10.200;2022-12-05T00:33:28;8.30;80.70
20337;DHT22;10326;53.660;10.200;2022-12-05T00:36:00;8.30;80.60
20337;DHT22;10326;53.660;10.200;2022-12-05T00:38:27;8.30;80.70
20337;DHT22;10326;53.660;10.200;2022-12-05T00:40:54;8.30;80.60
20337;DHT22;10326;53.660;10.200;2022-12-05T00:43:22;8.30;80.60
20337;DHT22;10326;53.660;10.200;2022-12-05T00:45:49;8.30;80.70
20337;DHT22;10326;53.660;10.200;2022-12-05T00:48:16;8.30;80.70
20337;DHT22;10326;53.660;10.200;2022-12-05T00:50:44;8.30;80.70
20337;DHT22;10326;53.660;10.200;2022-12-05T00:53:12;8.30;80.70
20337;DHT22;10326;53.660;10.200;2022-12-05T00:55:39;8.30;80.80
20337;DHT22;10326;53.660;10.200;2022-12-05T00:58:06;8.30;80.80
20337;DHT22;10326;53.660;10.200;2022-12-05T01:00:33;8.30;80.80
20337;DHT22;10326;53.660;10.200;2022-12-05T01:03:00;8.30;80.80
20337;DHT22;10326;53.660;10.200;2022-12-05T01:05:27;8.30;80.80
20337;DHT22;10326;53.660;10.200;2022-12-05T01:07:54;8.30;80.90
20337;DHT22;10326;53.660;10.200;2022-12-05T01:10:22;8.30;80.90
20337;DHT22;10326;53.660;10.200;2022-12-05T01:12:49;8.30;80.90
20337;DHT22;10326;53.660;10.200;2022-12-05T01:15:16;8.30;80.90
20337;DHT22;10326;53.660;10.200;2022-12-05T01:17:43;8.30;80.90
20337;DHT22;10326;53.660;10.200;2022-12-05T01:20:11;8.30;80.90
20337;DHT22;10326;53.660;10.200;2022-12-05T01:22:38;8.30;81.00
20337;DHT22;10326;53.660;10.200;2022-12-05T01:25:06;8.30;81.00
20337;DHT22;10326;53.660;10.200;2022-12-05T01:27:35;8.30;81.00
20337;DHT22;10326;53.660;10.200;2022-12-05T01:30:02;8.30;81.00
20337;DHT22;10326;53.660;10.200;2022-12-05T01:32:30;8.40;81.10
20337;DHT22;10326;53.660;10.200;2022-12-05T01:34:57;8.30;81.10
20337;DHT22;10326;53.660;10.200;2022-12-05T01:37:24;8.30;81.20
20337;DHT22;10326;53.660;10.200;2022-12-05T01:39:51;8.40;81.20
20337;DHT22;10326;53.660;10.200;2022-12-05T01:42:18;8.40;81.20
20337;DHT22;10326;53.660;10.200;2022-12-05T01:45:03;8.40;81.20
20337;DHT22;10326;53.660;10.200;2022-12-05T01:47:34;8.40;81.50
20337;DHT22;10326;53.660;10.200;2022-12-05T01:50:03;8.40;81.30
20337;DHT22;10326;53.660;10.200;2022-12-05T01:52:32;8.40;81.30
20337;DHT22;10326;53.660;10.200;2022-12-05T01:55:05;8.40;81.40
20337;DHT22;10326;53.660;10.200;2022-12-05T01:57:35;8.40;81.40
20337;DHT22;10326;53.660;10.200;2022-12-05T02:00:08;8.40;81.40
20337;DHT22;10326;53.660;10.200;2022-12-05T02:02:42;8.50;81.60
20337;DHT22;10326;53.660;10.200;2022-12-05T02:05:14;8.40;81.40
20337;DHT22;10326;53.660;10.200;2022-12-05T02:07:44;8.50;81.60
20337;DHT22;10326;53.660;10.200;2022-12-05T02:10:13;8.50;81.50
20337;DHT22;10326;53.660;10.200;2022-12-05T02:12:40;8.50;81.50
20337;DHT22;10326;53.660;10.200;2022-12-05T02:15:21;8.50;81.50
20337;DHT22;10326;53.660;10.200;2022-12-05T02:18:03;8.50;81.60
20337;DHT22;10326;53.660;10.200;2022-12-05T02:20:43;8.50;82.20
20337;DHT22;10326;53.660;10.200;2022-12-05T02:23:41;8.50;81.60
20337;DHT22;10326;53.660;10.200;2022-12-05T02:32:39;8.50;81.80
20337;DHT22;10326;53.660;10.200;2022-12-05T02:35:17;8.60;81.70
20337;DHT22;10326;53.660;10.200;2022-12-05T02:37:55;8.60;81.70
20337;DHT22;10326;53.660;10.200;2022-12-05T02:40:32;8.60;81.80
20337;DHT22;10326;53.660;10.200;2022-12-05T02:43:07;8.60;81.80
20337;DHT22;10326;53.660;10.200;2022-12-05T02:45:39;8.60;81.90
20337;DHT22;10326;53.660;10.200;2022-12-05T02:48:08;8.50;81.80
20337;DHT22;10326;53.660;10.200;2022-12-05T02:50:38;8.60;81.90
20337;DHT22;10326;53.660;10.200;2022-12-05T02:53:08;8.60;82.00
20337;DHT22;10326;53.660;10.200;2022-12-05T02:55:38;8.60;82.00
20337;DHT22;10326;53.660;10.200;2022-12-05T02:58:10;8.60;82.00
20337;DHT22;10326;53.660;10.200;2022-12-05T03:00:43;8.60;82.00
20337;DHT22;10326;53.660;10.200;2022-12-05T03:03:13;8.60;82.00
20337;DHT22;10326;53.660;10.200;2022-12-05T03:05:49;8.60;82.00
20337;DHT22;10326;53.660;10.200;2022-12-05T03:08:22;8.60;82.20
20337;DHT22;10326;53.660;10.200;2022-12-05T03:10:52;8.60;82.10
20337;DHT22;10326;53.660;10.200;2022-12-05T03:13:23;8.60;82.10
20337;DHT22;10326;53.660;10.200;2022-12-05T03:15:59;8.60;82.10
20337;DHT22;10326;53.660;10.200;2022-12-05T03:18:29;8.60;82.20
20337;DHT22;10326;53.660;10.200;2022-12-05T03:20:59;8.60;82.10
20337;DHT22;10326;53.660;10.200;2022-12-05T03:23:32;8.60;82.10
20337;DHT22;10326;53.660;10.200;2022-12-05T03:26:05;8.60;82.20
20337;DHT22;10326;53.660;10.200;2022-12-05T03:28:48;8.60;82.20
20337;DHT22;10326;53.660;10.200;2022-12-05T03:31:24;8.60;82.30
20337;DHT22;10326;53.660;10.200;2022-12-05T03:34:00;8.60;82.30
20337;DHT22;10326;53.660;10.200;2022-12-05T03:36:36;8.60;82.20
20337;DHT22;10326;53.660;10.200;2022-12-05T03:39:09;8.70;82.50
20337;DHT22;10326;53.660;10.200;2022-12-05T03:41:40;8.60;82.30
20337;DHT22;10326;53.660;10.200;2022-12-05T03:44:17;8.70;82.30
20337;DHT22;10326;53.660;10.200;2022-12-05T03:46:53;8.70;82.40
20337;DHT22;10326;53.660;10.200;2022-12-05T03:49:28;8.70;82.40
20337;DHT22;10326;53.660;10.200;2022-12-05T03:52:03;8.70;82.40
20337;DHT22;10326;53.660;10.200;2022-12-05T03:54:35;8.70;82.40
20337;DHT22;10326;53.660;10.200;2022-12-05T03:57:07;8.70;82.30
20337;DHT22;10326;53.660;10.200;2022-12-05T03:59:40;8.70;82.30
20337;DHT22;10326;53.660;10.200;2022-12-05T04:02:14;8.70;82.30
20337;DHT22;10326;53.660;10.200;2022-12-05T04:04:47;8.70;82.30
20337;DHT22;10326;53.660;10.200;2022-12-05T04:07:19;8.70;82.40
20337;DHT22;10326;53.660;10.200;2022-12-05T04:09:51;8.70;82.30
20337;DHT22;10326;53.660;10.200;2022-12-05T04:12:23;8.70;82.30
20337;DHT22;10326;53.660;10.200;2022-12-05T04:14:55;8.70;82.30
20337;DHT22;10326;53.660;10.200;2022-12-05T04:17:30;8.70;82.30
20337;DHT22;10326;53.660;10.200;2022-12-05T04:20:00;8.70;82.30
20337;DHT22;10326;53.660;10.200;2022-12-05T04:22:47;8.70;82.30
20337;DHT22;10326;53.660;10.200;2022-12-05T04:25:16;8.70;82.30
20337;DHT22;10326;53.660;10.200;2022-12-05T04:28:04;8.70;82.30
20337;DHT22;10326;53.660;10.200;2022-12-05T04:30:42;8.70;82.30
20337;DHT22;10326;53.660;10.200;2022-12-05T04:33:15;8.70;82.30
20337;DHT22;10326;53.660;10.200;2022-12-05T04:35:46;8.70;82.30
20337;DHT22;10326;53.660;10.200;2022-12-05T04:38:20;8.70;82.20
20337;DHT22;10326;53.660;10.200;2022-12-05T04:40:54;8.70;82.30
20337;DHT22;10326;53.660;10.200;2022-12-05T04:43:24;8.70;82.30
20337;DHT22;10326;53.660;10.200;2022-12-05T04:45:53;8.70;82.20
20337;DHT22;10326;53.660;10.200;2022-12-05T04:48:25;8.70;82.20
20337;DHT22;10326;53.660;10.200;2022-12-05T04:50:55;8.70;82.20
20337;DHT22;10326;53.660;10.200;2022-12-05T04:53:24;8.70;82.20
20337;DHT22;10326;53.660;10.200;2022-12-05T04:55:55;8.70;82.20
20337;DHT22;10326;53.660;10.200;2022-12-05T04:58:25;8.70;82.20
20337;DHT22;10326;53.660;10.200;2022-12-05T05:00:58;8.70;82.30
20337;DHT22;10326;53.660;10.200;2022-12-05T05:03:34;8.70;82.30
20337;DHT22;10326;53.660;10.200;2022-12-05T05:06:04;8.70;82.30
20337;DHT22;10326;53.660;10.200;2022-12-05T05:08:32;8.70;82.20
20337;DHT22;10326;53.660;10.200;2022-12-05T05:11:10;8.60;82.20
20337;DHT22;10326;53.660;10.200;2022-12-05T05:13:39;8.70;82.40
20337;DHT22;10326;53.660;10.200;2022-12-05T05:16:07;8.60;82.20
20337;DHT22;10326;53.660;10.200;2022-12-05T05:18:39;8.70;82.30
20337;DHT22;10326;53.660;10.200;2022-12-05T05:21:14;8.70;82.30
20337;DHT22;10326;53.660;10.200;2022-12-05T05:23:42;8.70;82.30
20337;DHT22;10326;53.660;10.200;2022-12-05T05:26:09;8.70;82.10
20337;DHT22;10326;53.660;10.200;2022-12-05T05:28:36;8.70;82.10
20337;DHT22;10326;53.660;10.200;2022-12-05T05:31:04;8.70;82.10
20337;DHT22;10326;53.660;10.200;2022-12-05T05:33:32;8.60;82.00
20337;DHT22;10326;53.660;10.200;2022-12-05T05:36:03;8.60;81.90
20337;DHT22;10326;53.660;10.200;2022-12-05T05:38:34;8.60;82.00
20337;DHT22;10326;53.660;10.200;2022-12-05T05:41:02;8.60;82.00
20337;DHT22;10326;53.660;10.200;2022-12-05T05:43:31;8.60;82.00
20337;DHT22;10326;53.660;10.200;2022-12-05T05:46:02;8.60;82.00
20337;DHT22;10326;53.660;10.200;2022-12-05T05:48:30;8.60;82.00
20337;DHT22;10326;53.660;10.200;2022-12-05T05:50:58;8.60;82.60
20337;DHT22;10326;53.660;10.200;2022-12-05T05:53:26;8.60;82.00
20337;DHT22;10326;53.660;10.200;2022-12-05T05:55:53;8.60;81.90
20337;DHT22;10326;53.660;10.200;2022-12-05T05:58:21;8.60;82.00
20337;DHT22;10326;53.660;10.200;2022-12-05T06:00:48;8.60;82.00
20337;DHT22;10326;53.660;10.200;2022-12-05T06:03:15;8.60;81.90
20337;DHT22;10326;53.660;10.200;2022-12-05T06:05:42;8.60;81.80
20337;DHT22;10326;53.660;10.200;2022-12-05T06:08:09;8.60;81.80
20337;DHT22;10326;53.660;10.200;2022-12-05T06:10:38;8.60;81.80
20337;DHT22;10326;53.660;10.200;2022-12-05T06:13:05;8.50;81.70
20337;DHT22;10326;53.660;10.200;2022-12-05T06:15:33;8.50;81.70
20337;DHT22;10326;53.660;10.200;2022-12-05T06:18:00;8.50;81.60
20337;DHT22;10326;53.660;10.200;2022-12-05T06:20:27;8.50;81.60
20337;DHT22;10326;53.660;10.200;2022-12-05T06:22:54;8.50;81.60
20337;DHT22;10326;53.660;10.200;2022-12-05T06:25:21;8.50;81.60
20337;DHT22;10326;53.660;10.200;2022-12-05T06:27:49;8.50;81.60
20337;DHT22;10326;53.660;10.200;2022-12-05T06:30:16;8.50;81.60
20337;DHT22;10326;53.660;10.200;2022-12-05T06:32:44;8.50;81.60
20337;DHT22;10326;53.660;10.200;2022-12-05T06:35:11;8.50;81.50
20337;DHT22;10326;53.660;10.200;2022-12-05T06:37:41;8.50;81.50
20337;DHT22;10326;53.660;10.200;2022-12-05T06:40:09;8.40;81.40
20337;DHT22;10326;53.660;10.200;2022-12-05T06:42:37;8.40;81.50
20337;DHT22;10326;53.660;10.200;2022-12-05T06:45:06;8.40;81.50
20337;DHT22;10326;53.660;10.200;2022-12-05T06:47:34;8.40;81.50
20337;DHT22;10326;53.660;10.200;2022-12-05T06:50:01;8.40;81.50
20337;DHT22;10326;53.660;10.200;2022-12-05T06:52:28;8.40;81.50
20337;DHT22;10326;53.660;10.200;2022-12-05T06:54:55;8.40;81.50
20337;DHT22;10326;53.660;10.200;2022-12-05T06:57:24;8.40;81.40
20337;DHT22;10326;53.660;10.200;2022-12-05T06:59:51;8.40;81.30
20337;DHT22;10326;53.660;10.200;2022-12-05T07:02:39;8.30;81.20
20337;DHT22;10326;53.660;10.200;2022-12-05T07:05:06;8.30;81.10
20337;DHT22;10326;53.660;10.200;2022-12-05T07:07:34;8.30;81.10
20337;DHT22;10326;53.660;10.200;2022-12-05T07:10:01;8.30;81.10
20337;DHT22;10326;53.660;10.200;2022-12-05T07:12:28;8.30;81.10
20337;DHT22;10326;53.660;10.200;2022-12-05T07:14:55;8.20;81.10
20337;DHT22;10326;53.660;10.200;2022-12-05T07:17:22;8.20;81.10
20337;DHT22;10326;53.660;10.200;2022-12-05T07:19:51;8.20;81.10
20337;DHT22;10326;53.660;10.200;2022-12-05T07:22:21;8.20;81.00
20337;DHT22;10326;53.660;10.200;2022-12-05T07:24:50;8.20;81.10
20337;DHT22;10326;53.660;10.200;2022-12-05T07:27:18;8.20;81.10
20337;DHT22;10326;53.660;10.200;2022-12-05T07:29:45;8.20;81.00
20337;DHT22;10326;53.660;10.200;2022-12-05T07:32:12;8.20;81.00
20337;DHT22;10326;53.660;10.200;2022-12-05T07:34:39;8.20;81.00
20337;DHT22;10326;53.660;10.200;2022-12-05T07:37:08;8.10;80.90
20337;DHT22;10326;53.660;10.200;2022-12-05T07:39:35;8.10;81.00
20337;DHT22;10326;53.660;10.200;2022-12-05T07:42:02;8.10;81.00
20337;DHT22;10326;53.660;10.200;2022-12-05T07:44:29;8.10;81.00
20337;DHT22;10326;53.660;10.200;2022-12-05T07:46:56;8.10;80.90
20337;DHT22;10326;53.660;10.200;2022-12-05T07:49:23;8.10;80.90
20337;DHT22;10326;53.660;10.200;2022-12-05T07:51:50;8.10;80.90
20337;DHT22;10326;53.660;10.200;2022-12-05T07:54:19;8.10;80.90
20337;DHT22;10326;53.660;10.200;2022-12-05T07:56:46;8.10;80.80
20337;DHT22;10326;53.660;10.200;2022-12-05T07:59:13;8.10;80.80
20337;DHT22;10326;53.660;10.200;2022-12-05T08:01:40;8.10;80.80
20337;DHT22;10326;53.660;10.200;2022-12-05T08:04:07;8.10;80.80
20337;DHT22;10326;53.660;10.200;2022-12-05T08:06:34;8.10;80.80
20337;DHT22;10326;53.660;10.200;2022-12-05T08:09:02;8.00;80.70
20337;DHT22;10326;53.660;10.200;2022-12-05T08:11:32;8.00;80.70
20337;DHT22;10326;53.660;10.200;2022-12-05T08:14:01;8.00;80.70
20337;DHT22;10326;53.660;10.200;2022-12-05T08:16:30;8.00;80.70
20337;DHT22;10326;53.660;10.200;2022-12-05T08:18:59;8.00;80.70
20337;DHT22;10326;53.660;10.200;2022-12-05T08:21:28;8.00;80.70
20337;DHT22;10326;53.660;10.200;2022-12-05T08:23:55;8.00;80.70
20337;DHT22;10326;53.660;10.200;2022-12-05T08:26:24;8.00;80.70
20337;DHT22;10326;53.660;10.200;2022-12-05T08:28:55;8.00;80.80
20337;DHT22;10326;53.660;10.200;2022-12-05T08:31:25;8.00;80.80
20337;DHT22;10326;53.660;10.200;2022-12-05T08:33:55;8.00;80.70
20337;DHT22;10326;53.660;10.200;2022-12-05T08:36:24;8.00;80.70
20337;DHT22;10326;53.660;10.200;2022-12-05T08:38:55;7.90;80.60
20337;DHT22;10326;53.660;10.200;2022-12-05T08:41:22;7.90;80.60
20337;DHT22;10326;53.660;10.200;2022-12-05T08:43:54;7.90;80.90
20337;DHT22;10326;53.660;10.200;2022-12-05T08:46:22;7.90;80.70
20337;DHT22;10326;53.660;10.200;2022-12-05T08:48:49;7.90;80.70
20337;DHT22;10326;53.660;10.200;2022-12-05T08:51:16;7.90;80.60
20337;DHT22;10326;53.660;10.200;2022-12-05T08:53:43;7.90;80.60
20337;DHT22;10326;53.660;10.200;2022-12-05T08:56:11;7.90;80.60
20337;DHT22;10326;53.660;10.200;2022-12-05T08:58:39;7.90;80.60
20337;DHT22;10326;53.660;10.200;2022-12-05T09:01:09;7.90;80.60
20337;DHT22;10326;53.660;10.200;2022-12-05T09:03:37;7.90;80.60
20337;DHT22;10326;53.660;10.200;2022-12-05T09:06:06;7.80;80.60
20337;DHT22;10326;53.660;10.200;2022-12-05T09:08:33;7.80;80.60
20337;DHT22;10326;53.660;10.200;2022-12-05T09:11:04;7.80;80.70
20337;DHT22;10326;53.660;10.200;2022-12-05T09:13:32;7.80;80.60
20337;DHT22;10326;53.660;10.200;2022-12-05T09:16:04;7.80;80.70
20337;DHT22;10326;53.660;10.200;2022-12-05T09:18:34;7.80;80.70
20337;DHT22;10326;53.660;10.200;2022-12-05T09:21:06;7.80;80.70
20337;DHT22;10326;53.660;10.200;2022-12-05T09:23:34;7.80;80.70
20337;DHT22;10326;53.660;10.200;2022-12-05T09:26:01;7.80;81.20
20337;DHT22;10326;53.660;10.200;2022-12-05T09:28:30;7.80;80.70
20337;DHT22;10326;53.660;10.200;2022-12-05T09:30:59;7.80;80.80
20337;DHT22;10326;53.660;10.200;2022-12-05T09:33:28;7.70;80.70
20337;DHT22;10326;53.660;10.200;2022-12-05T09:35:57;7.70;80.70
20337;DHT22;10326;53.660;10.200;2022-12-05T09:38:24;7.70;80.70
20337;DHT22;10326;53.660;10.200;2022-12-05T09:40:58;7.70;80.70
20337;DHT22;10326;53.660;10.200;2022-12-05T09:43:36;7.70;80.70
20337;DHT22;10326;53.660;10.200;2022-12-05T09:46:20;7.70;80.70
20337;DHT22;10326;53.660;10.200;2022-12-05T09:48:53;7.70;80.70
20337;DHT22;10326;53.660;10.200;2022-12-05T09:51:25;7.70;80.90
20337;DHT22;10326;53.660;10.200;2022-12-05T09:53:53;7.70;80.80
20337;DHT22;10326;53.660;10.200;2022-12-05T09:56:24;7.70;80.80
20337;DHT22;10326;53.660;10.200;2022-12-05T09:58:56;7.70;80.80
20337;DHT22;10326;53.660;10.200;2022-12-05T10:01:32;7.70;80.70
20337;DHT22;10326;53.660;10.200;2022-12-05T10:04:18;7.70;80.80
20337;DHT22;10326;53.660;10.200;2022-12-05T10:06:59;7.70;80.90
20337;DHT22;10326;53.660;10.200;2022-12-05T10:09:38;7.60;80.90
20337;DHT22;10326;53.660;10.200;2022-12-05T10:12:22;7.60;80.90
20337;DHT22;10326;53.660;10.200;2022-12-05T10:15:03;7.70;81.00
20337;DHT22;10326;53.660;10.200;2022-12-05T10:17:40;7.60;80.90
20337;DHT22;10326;53.660;10.200;2022-12-05T10:20:14;7.70;81.00
20337;DHT22;10326;53.660;10.200;2022-12-05T10:22:46;7.70;81.00
20337;DHT22;10326;53.660;10.200;2022-12-05T10:25:18;7.60;80.90
20337;DHT22;10326;53.660;10.200;2022-12-05T10:27:50;7.70;80.90
20337;DHT22;10326;53.660;10.200;2022-12-05T10:30:19;7.70;80.90
20337;DHT22;10326;53.660;10.200;2022-12-05T10:32:52;7.70;81.00
20337;DHT22;10326;53.660;10.200;2022-12-05T10:35:22;7.70;81.00
20337;DHT22;10326;53.660;10.200;2022-12-05T10:37:52;7.70;81.00
20337;DHT22;10326;53.660;10.200;2022-12-05T10:40:21;7.70;81.00
20337;DHT22;10326;53.660;10.200;2022-12-05T10:42:59;7.70;81.00
20337;DHT22;10326;53.660;10.200;2022-12-05T10:45:26;7.70;80.90
20337;DHT22;10326;53.660;10.200;2022-12-05T10:47:55;7.70;81.00
20337;DHT22;10326;53.660;10.200;2022-12-05T10:50:28;7.70;80.90
20337;DHT22;10326;53.660;10.200;2022-12-05T10:52:59;7.70;81.00
20337;DHT22;10326;53.660;10.200;2022-12-05T10:55:30;7.70;81.00
20337;DHT22;10326;53.660;10.200;2022-12-05T10:58:11;7.70;81.00
20337;DHT22;10326;53.660;10.200;2022-12-05T11:00:39;7.70;81.00
20337;DHT22;10326;53.660;10.200;2022-12-05T11:03:24;7.70;81.00
20337;DHT22;10326;53.660;10.200;2022-12-05T11:05:54;7.70;81.00
20337;DHT22;10326;53.660;10.200;2022-12-05T11:08:26;7.80;81.00
20337;DHT22;10326;53.660;10.200;2022-12-05T11:11:01;7.80;81.00
20337;DHT22;10326;53.660;10.200;2022-12-05T11:13:29;7.80;80.90
20337;DHT22;10326;53.660;10.200;2022-12-05T11:15:56;7.70;80.80
20337;DHT22;10326;53.660;10.200;2022-12-05T11:18:30;7.80;80.80
20337;DHT22;10326;53.660;10.200;2022-12-05T11:21:08;7.80;80.80
20337;DHT22;10326;53.660;10.200;2022-12-05T11:23:38;7.80;80.80
20337;DHT22;10326;53.660;10.200;2022-12-05T11:26:16;7.80;80.70
20337;DHT22;10326;53.660;10.200;2022-12-05T11:28:45;7.80;80.70
20337;DHT22;10326;53.660;10.200;2022-12-05T11:31:25;7.80;80.70
20337;DHT22;10326;53.660;10.200;2022-12-05T11:34:01;7.80;80.90
20337;DHT22;10326;53.660;10.200;2022-12-05T11:36:36;7.80;80.90
20337;DHT22;10326;53.660;10.200;2022-12-05T11:39:08;7.80;81.00
20337;DHT22;10326;53.660;10.200;2022-12-05T11:41:52;7.80;80.90
20337;DHT22;10326;53.660;10.200;2022-12-05T11:44:47;7.80;80.90
20337;DHT22;10326;53.660;10.200;2022-12-05T11:47:42;7.80;80.90
20337;DHT22;10326;53.660;10.200;2022-12-05T11:50:23;7.80;80.90
20337;DHT22;10326;53.660;10.200;2022-12-05T11:53:04;7.80;80.90
20337;DHT22;10326;53.660;10.200;2022-12-05T11:55:44;7.80;80.90
20337;DHT22;10326;53.660;10.200;2022-12-05T11:58:28;7.80;80.90
20337;DHT22;10326;53.660;10.200;2022-12-05T12:01:11;7.80;81.00
20337;DHT22;10326;53.660;10.200;2022-12-05T12:07:12;7.80;80.80
20337;DHT22;10326;53.660;10.200;2022-12-05T12:09:52;7.80;80.70
20337;DHT22;10326;53.660;10.200;2022-12-05T12:12:30;7.80;80.70
20337;DHT22;10326;53.660;10.200;2022-12-05T12:15:18;7.80;80.80
20337;DHT22;10326;53.660;10.200;2022-12-05T12:18:03;7.80;80.80
20337;DHT22;10326;53.660;10.200;2022-12-05T12:20:48;7.80;80.90
20337;DHT22;10326;53.660;10.200;2022-12-05T12:23:35;7.80;81.00
20337;DHT22;10326;53.660;10.200;2022-12-05T12:26:10;7.80;81.00
20337;DHT22;10326;53.660;10.200;2022-12-05T12:28:48;7.80;80.90
20337;DHT22;10326;53.660;10.200;2022-12-05T12:31:44;7.80;80.80
20337;DHT22;10326;53.660;10.200;2022-12-05T12:34:33;7.80;80.70
20337;DHT22;10326;53.660;10.200;2022-12-05T12:37:15;7.80;80.70
20337;DHT22;10326;53.660;10.200;2022-12-05T12:39:50;7.80;80.60
20337;DHT22;10326;53.660;10.200;2022-12-05T12:42:24;7.80;80.60
20337;DHT22;10326;53.660;10.200;2022-12-05T12:45:16;7.80;80.60
20337;DHT22;10326;53.660;10.200;2022-12-05T12:48:04;7.80;80.60
20337;DHT22;10326;53.660;10.200;2022-12-05T12:50:40;7.80;80.40
20337;DHT22;10326;53.660;10.200;2022-12-05T12:56:24;7.70;80.50
20337;DHT22;10326;53.660;10.200;2022-12-05T12:59:12;7.70;80.50
20337;DHT22;10326;53.660;10.200;2022-12-05T13:01:51;7.70;81.00
20337;DHT22;10326;53.660;10.200;2022-12-05T13:04:24;7.70;80.50
20337;DHT22;10326;53.660;10.200;2022-12-05T13:06:57;7.70;80.50
20337;DHT22;10326;53.660;10.200;2022-12-05T13:09:29;7.70;80.60
20337;DHT22;10326;53.660;10.200;2022-12-05T13:12:04;7.70;80.80
20337;DHT22;10326;53.660;10.200;2022-12-05T13:14:36;7.70;80.80
20337;DHT22;10326;53.660;10.200;2022-12-05T13:17:07;7.70;80.80
20337;DHT22;10326;53.660;10.200;2022-12-05T13:19:41;7.70;80.70
20337;DHT22;10326;53.660;10.200;2022-12-05T13:22:11;7.70;80.70
20337;DHT22;10326;53.660;10.200;2022-12-05T13:24:39;7.70;80.70
20337;DHT22;10326;53.660;10.200;2022-12-05T13:27:08;7.70;80.70
20337;DHT22;10326;53.660;10.200;2022-12-05T13:29:42;7.70;80.70
20337;DHT22;10326;53.660;10.200;2022-12-05T13:32:28;7.70;80.70
20337;DHT22;10326;53.660;10.200;2022-12-05T13:34:58;7.70;80.80
20337;DHT22;10326;53.660;10.200;2022-12-05T13:37:28;7.70;80.70
20337;DHT22;10326;53.660;10.200;2022-12-05T13:40:28;7.80;80.90
20337;DHT22;10326;53.660;10.200;2022-12-05T13:43:15;7.80;81.00
20337;DHT22;10326;53.660;10.200;2022-12-05T13:45:58;7.80;80.90
20337;DHT22;10326;53.660;10.200;2022-12-05T13:48:31;7.80;81.00
20337;DHT22;10326;53.660;10.200;2022-12-05T13:51:02;7.80;80.90
20337;DHT22;10326;53.660;10.200;2022-12-05T13:53:35;7.80;80.90
20337;DHT22;10326;53.660;10.200;2022-12-05T13:56:06;7.80;80.90
20337;DHT22;10326;53.660;10.200;2022-12-05T13:58:52;7.80;80.90
20337;DHT22;10326;53.660;10.200;2022-12-05T14:01:45;7.80;80.90
20337;DHT22;10326;53.660;10.200;2022-12-05T14:04:42;7.80;81.00
20337;DHT22;10326;53.660;10.200;2022-12-05T14:07:42;7.80;81.00
20337;DHT22;10326;53.660;10.200;2022-12-05T14:10:12;7.80;81.00
20337;DHT22;10326;53.660;10.200;2022-12-05T14:12:55;7.70;80.70
20337;DHT22;10326;53.660;10.200;2022-12-05T14:15:29;7.70;80.70
20337;DHT22;10326;53.660;10.200;2022-12-05T14:18:08;7.70;80.60
20337;DHT22;10326;53.660;10.200;2022-12-05T14:20:47;7.70;80.60
20337;DHT22;10326;53.660;10.200;2022-12-05T14:23:59;7.70;80.60
20337;DHT22;10326;53.660;10.200;2022-12-05T14:26:57;7.70;80.80
20337;DHT22;10326;53.660;10.200;2022-12-05T14:29:37;7.70;80.70
20337;DHT22;10326;53.660;10.200;2022-12-05T14:32:22;7.70;80.60
20337;DHT22;10326;53.660;10.200;2022-12-05T14:35:00;7.70;80.60
20337;DHT22;10326;53.660;10.200;2022-12-05T14:37:33;7.70;80.60
20337;DHT22;10326;53.660;10.200;2022-12-05T14:40:14;7.70;80.60
20337;DHT22;10326;53.660;10.200;2022-12-05T14:42:52;7.70;80.50
20337;DHT22;10326;53.660;10.200;2022-12-05T14:45:25;7.60;80.50
20337;DHT22;10326;53.660;10.200;2022-12-05T14:47:56;7.60;80.50
20337;DHT22;10326;53.660;10.200;2022-12-05T14:50:37;7.60;80.50
20337;DHT22;10326;53.660;10.200;2022-12-05T14:53:32;7.60;80.40
20337;DHT22;10326;53.660;10.200;2022-12-05T14:56:06;7.60;80.40
20337;DHT22;10326;53.660;10.200;2022-12-05T14:58:44;7.60;80.40
20337;DHT22;10326;53.660;10.200;2022-12-05T15:01:17;7.60;80.50
20337;DHT22;10326;53.660;10.200;2022-12-05T15:06:47;7.50;80.50
20337;DHT22;10326;53.660;10.200;2022-12-05T15:09:34;7.50;80.50
20337;DHT22;10326;53.660;10.200;2022-12-05T15:12:11;7.50;80.50
20337;DHT22;10326;53.660;10.200;2022-12-05T15:14:45;7.50;80.40
20337;DHT22;10326;53.660;10.200;2022-12-05T15:17:17;7.50;80.40
20337;DHT22;10326;53.660;10.200;2022-12-05T15:19:52;7.50;80.40
20337;DHT22;10326;53.660;10.200;2022-12-05T15:22:25;7.40;80.80
20337;DHT22;10326;53.660;10.200;2022-12-05T15:24:55;7.40;80.20
20337;DHT22;10326;53.660;10.200;2022-12-05T15:27:22;7.40;80.20
20337;DHT22;10326;53.660;10.200;2022-12-05T15:29:53;7.40;80.20
20337;DHT22;10326;53.660;10.200;2022-12-05T15:32:24;7.40;80.10
20337;DHT22;10326;53.660;10.200;2022-12-05T15:34:56;7.30;80.10
20337;DHT22;10326;53.660;10.200;2022-12-05T15:37:31;7.30;80.10
20337;DHT22;10326;53.660;10.200;2022-12-05T15:40:07;7.30;80.20
20337;DHT22;10326;53.660;10.200;2022-12-05T15:42:39;7.30;80.20
20337;DHT22;10326;53.660;10.200;2022-12-05T15:45:18;7.30;80.20
20337;DHT22;10326;53.660;10.200;2022-12-05T15:47:50;7.30;80.20
20337;DHT22;10326;53.660;10.200;2022-12-05T15:50:24;7.20;80.10
20337;DHT22;10326;53.660;10.200;2022-12-05T15:52:56;7.20;80.20
20337;DHT22;10326;53.660;10.200;2022-12-05T15:55:30;7.20;80.10
20337;DHT22;10326;53.660;10.200;2022-12-05T15:58:06;7.20;80.10
20337;DHT22;10326;53.660;10.200;2022-12-05T16:00:37;7.20;80.00
20337;DHT22;10326;53.660;10.200;2022-12-05T16:03:13;7.20;80.00
20337;DHT22;10326;53.660;10.200;2022-12-05T16:05:48;7.10;79.80
20337;DHT22;10326;53.660;10.200;2022-12-05T16:08:17;7.10;79.70
20337;DHT22;10326;53.660;10.200;2022-12-05T16:10:46;7.10;79.80
20337;DHT22;10326;53.660;10.200;2022-12-05T16:13:15;7.00;79.90
20337;DHT22;10326;53.660;10.200;2022-12-05T16:15:47;7.10;80.00
20337;DHT22;10326;53.660;10.200;2022-12-05T16:18:23;7.00;80.00
20337;DHT22;10326;53.660;10.200;2022-12-05T16:20:52;7.00;80.00